Time (yr/mo/day/hr) Wind Speed at 50 metres (Glencore Tower; km/hr) Wind Direction at 50 metres (Glencore Tower; degrees) Temperature (oC) SO2 Dispersion Conditions Mixing Height (m)
2021 03 02 01 9 288 -17 Stable 237
2021 03 02 02 11 294 -18 Stable 369
2021 03 02 03 11 293 -17 Stable 350
2021 03 02 04 11 290 -17 Stable 333
2021 03 02 05 9 282 -17 Stable 241
2021 03 02 06 9 268 -17 Stable 207
2021 03 02 07 9 256 -17 Stable 244
2021 03 02 08 8 251 -16 Neutral 154
2021 03 02 09 9 253 -14 Neutral 561
2021 03 02 10 13 248 -12 Slightly unstable 664
2021 03 02 11 15 248 -10 Slightly unstable 838
2021 03 02 12 16 241 -9 Slightly unstable 915
2021 03 02 13 17 234 -8 Slightly unstable 1048
2021 03 02 14 18 222 -7 Neutral 951
2021 03 02 15 20 210 -7 Neutral 997
2021 03 02 16 22 208 -6 Neutral 1102
2021 03 02 17 23 207 -5 Neutral 1166
2021 03 02 18 22 205 -5 Neutral 1624
2021 03 02 19 24 216 -5 Neutral 1915
2021 03 02 20 25 234 -5 Neutral 2007
2021 03 02 21 27 243 -5 Neutral 2478
2021 03 02 22 26 254 -5 Neutral 2399
2021 03 02 23 24 263 -5 Neutral 1871
2021 03 03 00 19 267 -5 Neutral 1186
2021 03 03 01 16 275 -5 Neutral 812